F/V Eema 2 — FL9603 — position and weather

sailwx.info

Track history (hours):
 
Tides and Currents Weather Stations Pressure Air Temp Water Temp Dewpoint Dewpoint Depression Visibility Wind Speed Wind Dir Waves Ship Positions

F/V Eema 2

Last reported at 2015-Jan-27 16:07 UTC. Time now 2015-Jan-28 09:20 UTC.
Position N 43°23' W 001°40'.

Length 10 m.

Type: Fishing. MMSI: 22700000.

Date/timePositionNaut miles runAvg speedWind from/ knotsBaromVisibWave heightAir tempDewpointWater temp
2015-Jan-27 16:07N 43°23' W 001°40'0 0.2
2015-Jan-27 15:28N 43°23' W 001°40'0 0.0
2015-Jan-27 14:31N 43°23' W 001°40'0 0.0
2015-Jan-27 13:31N 43°23' W 001°40'0 0.0
2015-Jan-27 12:28N 43°23' W 001°40'0 0.0
2015-Jan-27 11:28N 43°23' W 001°40'3 3.5
2015-Jan-27 10:32N 43°26' W 001°40'60 2.5
2015-Jan-26 10:07N 44°26' W 001°36'1 1.3
2015-Jan-26 09:31N 44°27' W 001°35'2 1.7
2015-Jan-26 08:17N 44°29' W 001°36'1 1.4
2015-Jan-26 07:21N 44°30' W 001°35'4 2.1
2015-Jan-26 05:19N 44°26' W 001°35'1 0.6
2015-Jan-26 04:30N 44°26' W 001°35'  
2015-Jan-20 23:30N 44°20' W 001°31'12 1.9
2015-Jan-20 17:15N 44°30' W 001°24'6 8.0
2015-Jan-20 16:33N 44°34' W 001°18'7 6.7
2015-Jan-20 15:33N 44°39' W 001°13'3 2.6
2015-Jan-20 14:28N 44°39' W 001°09'0 0.0
2015-Jan-20 13:31N 44°39' W 001°09'0 0.3
2015-Jan-20 12:33N 44°40' W 001°09'8 8.2
2015-Jan-20 11:33N 44°34' W 001°18'1 1.2
2015-Jan-20 10:33N 44°35' W 001°19'4 3.6
2015-Jan-20 09:33N 44°31' W 001°21'1 0.8
2015-Jan-20 08:30N 44°31' W 001°22'2 2.1
2015-Jan-20 07:33N 44°29' W 001°22'1 0.3
2015-Jan-20 05:32N 44°29' W 001°21'2 1.6
2015-Jan-20 04:26N 44°31' W 001°21'1 1.3
2015-Jan-20 03:33N 44°30' W 001°21'2 2.1
2015-Jan-20 02:33N 44°28' W 001°21'2 1.8
2015-Jan-20 01:15N 44°30' W 001°22'0 0.1
2015-Jan-20 00:31N 44°30' W 001°22'0 0.0
2015-Jan-19 23:31N 44°30' W 001°22'0 0.0
2015-Jan-19 22:31N 44°30' W 001°22'0 0.1
2015-Jan-19 21:32N 44°30' W 001°22'0 0.1
2015-Jan-19 20:33N 44°30' W 001°22'0 0.1
2015-Jan-19 19:29N 44°30' W 001°22'0 0.1
2015-Jan-19 18:28N 44°30' W 001°22'1 0.6
2015-Jan-19 17:27N 44°30' W 001°22'1 0.6
2015-Jan-19 16:31N 44°30' W 001°21'1 0.9
2015-Jan-19 15:07N 44°30' W 001°20'2 3.0
2015-Jan-19 14:33N 44°32' W 001°20'8 8.5
2015-Jan-19 13:33N 44°40' W 001°19'9 8.6
2015-Jan-19 12:33N 44°49' W 001°17'3 0.6
2015-Jan-19 08:25N 44°50' W 001°20'2 0.2
2015-Jan-19 01:33N 44°51' W 001°21'1 0.2
2015-Jan-18 23:07N 44°52' W 001°22'0 0.0
2015-Jan-18 15:19N 44°52' W 001°22'  
Track history (hours):
 
Tides and Currents Weather Stations Pressure Air Temp Water Temp Dewpoint Dewpoint Depression Visibility Wind Speed Wind Dir Waves Ship Positions

F/V Eema 2

Last reported at 2015-Jan-27 16:07 UTC. Time now 2015-Jan-28 09:20 UTC.
Position N 43°23' W 001°40'.

Length 10 m.

Type: Fishing. MMSI: 22700000.

Date/timePositionNaut miles runAvg speedWind from/ knotsBaromVisibWave heightAir tempDewpointWater temp
2015-Jan-27 16:07N 43°23' W 001°40'0 0.2
2015-Jan-27 15:28N 43°23' W 001°40'0 0.0
2015-Jan-27 14:31N 43°23' W 001°40'0 0.0
2015-Jan-27 13:31N 43°23' W 001°40'0 0.0
2015-Jan-27 12:28N 43°23' W 001°40'0 0.0
2015-Jan-27 11:28N 43°23' W 001°40'3 3.5
2015-Jan-27 10:32N 43°26' W 001°40'60 2.5
2015-Jan-26 10:07N 44°26' W 001°36'1 1.3
2015-Jan-26 09:31N 44°27' W 001°35'2 1.7
2015-Jan-26 08:17N 44°29' W 001°36'1 1.4
2015-Jan-26 07:21N 44°30' W 001°35'4 2.1
2015-Jan-26 05:19N 44°26' W 001°35'1 0.6
2015-Jan-26 04:30N 44°26' W 001°35'  
2015-Jan-20 23:30N 44°20' W 001°31'12 1.9
2015-Jan-20 17:15N 44°30' W 001°24'6 8.0
2015-Jan-20 16:33N 44°34' W 001°18'7 6.7
2015-Jan-20 15:33N 44°39' W 001°13'3 2.6
2015-Jan-20 14:28N 44°39' W 001°09'0 0.0
2015-Jan-20 13:31N 44°39' W 001°09'0 0.3
2015-Jan-20 12:33N 44°40' W 001°09'8 8.2
2015-Jan-20 11:33N 44°34' W 001°18'1 1.2
2015-Jan-20 10:33N 44°35' W 001°19'4 3.6
2015-Jan-20 09:33N 44°31' W 001°21'1 0.8
2015-Jan-20 08:30N 44°31' W 001°22'2 2.1
2015-Jan-20 07:33N 44°29' W 001°22'1 0.3
2015-Jan-20 05:32N 44°29' W 001°21'2 1.6
2015-Jan-20 04:26N 44°31' W 001°21'1 1.3
2015-Jan-20 03:33N 44°30' W 001°21'2 2.1
2015-Jan-20 02:33N 44°28' W 001°21'2 1.8
2015-Jan-20 01:15N 44°30' W 001°22'0 0.1
2015-Jan-20 00:31N 44°30' W 001°22'0 0.0
2015-Jan-19 23:31N 44°30' W 001°22'0 0.0
2015-Jan-19 22:31N 44°30' W 001°22'0 0.1
2015-Jan-19 21:32N 44°30' W 001°22'0 0.1
2015-Jan-19 20:33N 44°30' W 001°22'0 0.1
2015-Jan-19 19:29N 44°30' W 001°22'0 0.1
2015-Jan-19 18:28N 44°30' W 001°22'1 0.6
2015-Jan-19 17:27N 44°30' W 001°22'1 0.6
2015-Jan-19 16:31N 44°30' W 001°21'1 0.9
2015-Jan-19 15:07N 44°30' W 001°20'2 3.0
2015-Jan-19 14:33N 44°32' W 001°20'8 8.5
2015-Jan-19 13:33N 44°40' W 001°19'9 8.6
2015-Jan-19 12:33N 44°49' W 001°17'3 0.6
2015-Jan-19 08:25N 44°50' W 001°20'2 0.2
2015-Jan-19 01:33N 44°51' W 001°21'1 0.2
2015-Jan-18 23:07N 44°52' W 001°22'0 0.0
2015-Jan-18 15:19N 44°52' W 001°22'  

Dump ship's entire track history